sensor_id;sensor_type;location;lat;lon;timestamp;temperature;humidity
33269;DHT22;19640;50.944;5.260;2022-10-31T00:00:41;13.70;99.90
33269;DHT22;19640;50.944;5.260;2022-10-31T00:03:07;13.80;99.90
33269;DHT22;19640;50.944;5.260;2022-10-31T00:05:32;13.80;99.90
33269;DHT22;19640;50.944;5.260;2022-10-31T00:07:58;14.10;99.90
33269;DHT22;19640;50.944;5.260;2022-10-31T00:10:23;14.20;99.90
33269;DHT22;19640;50.944;5.260;2022-10-31T00:12:49;14.30;99.90
33269;DHT22;19640;50.944;5.260;2022-10-31T00:15:16;14.20;99.90
33269;DHT22;19640;50.944;5.260;2022-10-31T00:17:41;13.90;99.90
33269;DHT22;19640;50.944;5.260;2022-10-31T00:20:08;13.50;99.90
33269;DHT22;19640;50.944;5.260;2022-10-31T00:22:33;13.20;99.90
33269;DHT22;19640;50.944;5.260;2022-10-31T00:24:59;13.10;99.90
33269;DHT22;19640;50.944;5.260;2022-10-31T00:27:24;12.90;99.90
33269;DHT22;19640;50.944;5.260;2022-10-31T00:29:50;13.00;99.90
33269;DHT22;19640;50.944;5.260;2022-10-31T00:32:16;13.20;99.90
33269;DHT22;19640;50.944;5.260;2022-10-31T00:34:41;13.20;99.90
33269;DHT22;19640;50.944;5.260;2022-10-31T00:37:07;13.40;99.90
33269;DHT22;19640;50.944;5.260;2022-10-31T00:39:32;13.60;99.90
33269;DHT22;19640;50.944;5.260;2022-10-31T00:41:58;13.50;99.90
33269;DHT22;19640;50.944;5.260;2022-10-31T00:44:23;13.20;99.90
33269;DHT22;19640;50.944;5.260;2022-10-31T00:46:49;13.00;99.90
33269;DHT22;19640;50.944;5.260;2022-10-31T00:49:15;12.90;99.90
33269;DHT22;19640;50.944;5.260;2022-10-31T00:51:40;13.00;99.90
33269;DHT22;19640;50.944;5.260;2022-10-31T00:54:06;13.10;99.90
33269;DHT22;19640;50.944;5.260;2022-10-31T00:56:32;13.00;99.90
33269;DHT22;19640;50.944;5.260;2022-10-31T00:58:57;12.90;99.90
33269;DHT22;19640;50.944;5.260;2022-10-31T01:01:23;12.60;99.90
33269;DHT22;19640;50.944;5.260;2022-10-31T01:03:49;12.50;99.90
33269;DHT22;19640;50.944;5.260;2022-10-31T01:06:14;12.30;99.90
33269;DHT22;19640;50.944;5.260;2022-10-31T01:08:41;12.20;99.90
33269;DHT22;19640;50.944;5.260;2022-10-31T01:11:12;12.30;99.90
33269;DHT22;19640;50.944;5.260;2022-10-31T01:13:39;12.50;99.90
33269;DHT22;19640;50.944;5.260;2022-10-31T01:16:07;12.50;99.90
33269;DHT22;19640;50.944;5.260;2022-10-31T01:18:33;12.40;99.90
33269;DHT22;19640;50.944;5.260;2022-10-31T01:23:34;12.70;99.90
33269;DHT22;19640;50.944;5.260;2022-10-31T01:26:14;12.70;99.90
33269;DHT22;19640;50.944;5.260;2022-10-31T01:28:49;12.70;99.90
33269;DHT22;19640;50.944;5.260;2022-10-31T01:31:16;12.80;99.90
33269;DHT22;19640;50.944;5.260;2022-10-31T01:33:43;12.90;99.90
33269;DHT22;19640;50.944;5.260;2022-10-31T01:36:36;12.70;99.90
33269;DHT22;19640;50.944;5.260;2022-10-31T01:39:06;12.40;99.90
33269;DHT22;19640;50.944;5.260;2022-10-31T01:41:37;12.20;99.90
33269;DHT22;19640;50.944;5.260;2022-10-31T01:49:24;12.50;99.90
33269;DHT22;19640;50.944;5.260;2022-10-31T01:52:02;12.50;99.90
33269;DHT22;19640;50.944;5.260;2022-10-31T01:54:35;12.60;99.90
33269;DHT22;19640;50.944;5.260;2022-10-31T01:57:04;12.50;99.90
33269;DHT22;19640;50.944;5.260;2022-10-31T01:59:33;12.60;99.90
33269;DHT22;19640;50.944;5.260;2022-10-31T02:01:59;12.40;99.90
33269;DHT22;19640;50.944;5.260;2022-10-31T02:04:25;12.10;99.90
33269;DHT22;19640;50.944;5.260;2022-10-31T02:06:56;12.20;99.90
33269;DHT22;19640;50.944;5.260;2022-10-31T02:09:24;12.40;99.90
33269;DHT22;19640;50.944;5.260;2022-10-31T02:11:52;12.10;99.90
33269;DHT22;19640;50.944;5.260;2022-10-31T02:14:19;11.90;99.90
33269;DHT22;19640;50.944;5.260;2022-10-31T02:16:46;12.00;99.90
33269;DHT22;19640;50.944;5.260;2022-10-31T02:19:17;12.10;99.90
33269;DHT22;19640;50.944;5.260;2022-10-31T02:35:53;12.50;99.90
33269;DHT22;19640;50.944;5.260;2022-10-31T02:44:15;11.50;99.90
33269;DHT22;19640;50.944;5.260;2022-10-31T02:51:53;11.50;99.90
33269;DHT22;19640;50.944;5.260;2022-10-31T02:54:28;11.20;99.90
33269;DHT22;19640;50.944;5.260;2022-10-31T02:57:04;11.10;99.90
33269;DHT22;19640;50.944;5.260;2022-10-31T02:59:33;11.10;99.90
33269;DHT22;19640;50.944;5.260;2022-10-31T03:02:13;11.30;99.90
33269;DHT22;19640;50.944;5.260;2022-10-31T03:05:00;11.50;99.90
33269;DHT22;19640;50.944;5.260;2022-10-31T03:12:43;11.60;99.90
33269;DHT22;19640;50.944;5.260;2022-10-31T03:15:23;11.50;99.90
33269;DHT22;19640;50.944;5.260;2022-10-31T03:20:39;11.60;99.90
33269;DHT22;19640;50.944;5.260;2022-10-31T03:23:10;11.60;99.90
33269;DHT22;19640;50.944;5.260;2022-10-31T03:25:37;11.50;99.90
33269;DHT22;19640;50.944;5.260;2022-10-31T03:28:04;11.40;99.90
33269;DHT22;19640;50.944;5.260;2022-10-31T03:30:34;11.40;99.90
33269;DHT22;19640;50.944;5.260;2022-10-31T03:33:03;11.40;99.90
33269;DHT22;19640;50.944;5.260;2022-10-31T03:35:30;11.20;99.90
33269;DHT22;19640;50.944;5.260;2022-10-31T03:37:59;11.10;99.90
33269;DHT22;19640;50.944;5.260;2022-10-31T03:40:27;11.10;99.90
33269;DHT22;19640;50.944;5.260;2022-10-31T03:43:03;11.30;99.90
33269;DHT22;19640;50.944;5.260;2022-10-31T03:45:30;11.30;99.90
33269;DHT22;19640;50.944;5.260;2022-10-31T03:47:58;11.20;99.90
33269;DHT22;19640;50.944;5.260;2022-10-31T03:50:29;11.30;99.90
33269;DHT22;19640;50.944;5.260;2022-10-31T03:53:13;11.30;99.90
33269;DHT22;19640;50.944;5.260;2022-10-31T03:55:46;11.20;99.90
33269;DHT22;19640;50.944;5.260;2022-10-31T03:58:47;11.30;99.90
33269;DHT22;19640;50.944;5.260;2022-10-31T04:01:16;11.10;99.90
33269;DHT22;19640;50.944;5.260;2022-10-31T04:03:44;10.90;99.90
33269;DHT22;19640;50.944;5.260;2022-10-31T04:06:12;10.70;99.90
33269;DHT22;19640;50.944;5.260;2022-10-31T04:08:44;10.60;99.90
33269;DHT22;19640;50.944;5.260;2022-10-31T04:11:11;10.60;99.90
33269;DHT22;19640;50.944;5.260;2022-10-31T04:13:39;10.70;99.90
33269;DHT22;19640;50.944;5.260;2022-10-31T04:16:05;10.90;99.90
33269;DHT22;19640;50.944;5.260;2022-10-31T04:18:32;11.00;99.90
33269;DHT22;19640;50.944;5.260;2022-10-31T04:21:02;10.90;99.90
33269;DHT22;19640;50.944;5.260;2022-10-31T04:23:28;10.90;99.90
33269;DHT22;19640;50.944;5.260;2022-10-31T04:25:54;10.80;99.90
33269;DHT22;19640;50.944;5.260;2022-10-31T04:28:19;10.70;99.90
33269;DHT22;19640;50.944;5.260;2022-10-31T04:30:45;10.50;99.90
33269;DHT22;19640;50.944;5.260;2022-10-31T04:33:11;10.30;99.90
33269;DHT22;19640;50.944;5.260;2022-10-31T04:35:36;10.20;99.90
33269;DHT22;19640;50.944;5.260;2022-10-31T04:38:02;10.20;99.90
33269;DHT22;19640;50.944;5.260;2022-10-31T04:40:28;10.30;99.90
33269;DHT22;19640;50.944;5.260;2022-10-31T04:42:53;10.20;99.90
33269;DHT22;19640;50.944;5.260;2022-10-31T04:45:19;10.10;99.90
33269;DHT22;19640;50.944;5.260;2022-10-31T04:47:45;10.10;99.90
33269;DHT22;19640;50.944;5.260;2022-10-31T04:50:10;10.10;99.90
33269;DHT22;19640;50.944;5.260;2022-10-31T04:52:43;10.10;99.90
33269;DHT22;19640;50.944;5.260;2022-10-31T04:55:10;10.30;99.90
33269;DHT22;19640;50.944;5.260;2022-10-31T04:57:47;10.30;99.90
33269;DHT22;19640;50.944;5.260;2022-10-31T05:00:14;10.50;99.90
33269;DHT22;19640;50.944;5.260;2022-10-31T05:02:50;10.70;99.90
33269;DHT22;19640;50.944;5.260;2022-10-31T05:05:18;10.80;99.90
33269;DHT22;19640;50.944;5.260;2022-10-31T05:07:46;10.80;99.90
33269;DHT22;19640;50.944;5.260;2022-10-31T05:10:14;10.80;99.90
33269;DHT22;19640;50.944;5.260;2022-10-31T05:15:17;10.90;99.90
33269;DHT22;19640;50.944;5.260;2022-10-31T05:17:43;10.90;99.90
33269;DHT22;19640;50.944;5.260;2022-10-31T05:20:10;11.00;99.90
33269;DHT22;19640;50.944;5.260;2022-10-31T05:22:36;10.80;99.90
33269;DHT22;19640;50.944;5.260;2022-10-31T05:25:02;11.00;99.90
33269;DHT22;19640;50.944;5.260;2022-10-31T05:27:28;10.90;99.90
33269;DHT22;19640;50.944;5.260;2022-10-31T05:29:53;11.00;99.90
33269;DHT22;19640;50.944;5.260;2022-10-31T05:32:19;10.90;99.90
33269;DHT22;19640;50.944;5.260;2022-10-31T05:34:45;11.00;99.90
33269;DHT22;19640;50.944;5.260;2022-10-31T05:37:10;11.00;99.90
33269;DHT22;19640;50.944;5.260;2022-10-31T05:39:36;11.00;99.90
33269;DHT22;19640;50.944;5.260;2022-10-31T05:42:02;11.00;99.90
33269;DHT22;19640;50.944;5.260;2022-10-31T05:44:28;10.90;99.90
33269;DHT22;19640;50.944;5.260;2022-10-31T05:46:54;11.00;99.90
33269;DHT22;19640;50.944;5.260;2022-10-31T05:49:19;11.10;99.90
33269;DHT22;19640;50.944;5.260;2022-10-31T05:51:45;11.20;99.90
33269;DHT22;19640;50.944;5.260;2022-10-31T05:54:11;11.20;99.90
33269;DHT22;19640;50.944;5.260;2022-10-31T05:56:36;11.10;99.90
33269;DHT22;19640;50.944;5.260;2022-10-31T05:59:02;11.30;99.90
33269;DHT22;19640;50.944;5.260;2022-10-31T06:01:27;11.50;99.90
33269;DHT22;19640;50.944;5.260;2022-10-31T06:03:53;11.60;99.90
33269;DHT22;19640;50.944;5.260;2022-10-31T06:06:19;11.40;99.90
33269;DHT22;19640;50.944;5.260;2022-10-31T06:08:44;11.30;99.90
33269;DHT22;19640;50.944;5.260;2022-10-31T06:11:10;11.20;99.90
33269;DHT22;19640;50.944;5.260;2022-10-31T06:13:35;11.20;99.90
33269;DHT22;19640;50.944;5.260;2022-10-31T06:16:01;11.40;99.90
33269;DHT22;19640;50.944;5.260;2022-10-31T06:18:26;11.60;99.90
33269;DHT22;19640;50.944;5.260;2022-10-31T06:20:52;11.60;99.90
33269;DHT22;19640;50.944;5.260;2022-10-31T06:23:18;11.50;99.90
33269;DHT22;19640;50.944;5.260;2022-10-31T06:25:48;11.40;99.90
33269;DHT22;19640;50.944;5.260;2022-10-31T06:28:14;11.40;99.90
33269;DHT22;19640;50.944;5.260;2022-10-31T06:30:40;11.50;99.90
33269;DHT22;19640;50.944;5.260;2022-10-31T06:33:05;11.60;99.90
33269;DHT22;19640;50.944;5.260;2022-10-31T06:35:31;11.80;99.90
33269;DHT22;19640;50.944;5.260;2022-10-31T06:37:57;11.80;99.90
33269;DHT22;19640;50.944;5.260;2022-10-31T06:40:23;11.80;99.90
33269;DHT22;19640;50.944;5.260;2022-10-31T06:42:56;11.80;99.90
33269;DHT22;19640;50.944;5.260;2022-10-31T06:45:23;11.90;99.90
33269;DHT22;19640;50.944;5.260;2022-10-31T06:47:52;12.00;99.90
33269;DHT22;19640;50.944;5.260;2022-10-31T06:50:19;12.00;99.90
33269;DHT22;19640;50.944;5.260;2022-10-31T06:52:53;12.00;99.90
33269;DHT22;19640;50.944;5.260;2022-10-31T06:55:20;12.00;99.90
33269;DHT22;19640;50.944;5.260;2022-10-31T06:57:55;12.00;99.90
33269;DHT22;19640;50.944;5.260;2022-10-31T07:00:21;11.80;99.90
33269;DHT22;19640;50.944;5.260;2022-10-31T07:03:02;11.60;99.90
33269;DHT22;19640;50.944;5.260;2022-10-31T07:05:29;11.40;99.90
33269;DHT22;19640;50.944;5.260;2022-10-31T07:07:57;11.30;99.90
33269;DHT22;19640;50.944;5.260;2022-10-31T07:10:24;11.00;99.90
33269;DHT22;19640;50.944;5.260;2022-10-31T07:12:57;10.80;99.90
33269;DHT22;19640;50.944;5.260;2022-10-31T07:15:24;10.60;99.90
33269;DHT22;19640;50.944;5.260;2022-10-31T07:17:50;10.60;99.90
33269;DHT22;19640;50.944;5.260;2022-10-31T07:20:16;10.90;99.90
33269;DHT22;19640;50.944;5.260;2022-10-31T07:22:42;11.10;99.90
33269;DHT22;19640;50.944;5.260;2022-10-31T07:25:08;11.30;99.90
33269;DHT22;19640;50.944;5.260;2022-10-31T07:27:38;11.40;99.90
33269;DHT22;19640;50.944;5.260;2022-10-31T07:30:04;11.50;99.90
33269;DHT22;19640;50.944;5.260;2022-10-31T07:32:46;11.70;99.90
33269;DHT22;19640;50.944;5.260;2022-10-31T07:35:15;11.40;99.90
33269;DHT22;19640;50.944;5.260;2022-10-31T07:37:41;11.20;99.90
33269;DHT22;19640;50.944;5.260;2022-10-31T07:40:07;11.20;99.90
33269;DHT22;19640;50.944;5.260;2022-10-31T07:42:41;11.10;99.90
33269;DHT22;19640;50.944;5.260;2022-10-31T07:45:12;11.00;99.90
33269;DHT22;19640;50.944;5.260;2022-10-31T07:47:42;11.10;99.90
33269;DHT22;19640;50.944;5.260;2022-10-31T07:50:10;11.30;99.90
33269;DHT22;19640;50.944;5.260;2022-10-31T07:52:36;11.40;99.90
33269;DHT22;19640;50.944;5.260;2022-10-31T07:55:03;11.30;99.90
33269;DHT22;19640;50.944;5.260;2022-10-31T07:57:29;11.20;99.90
33269;DHT22;19640;50.944;5.260;2022-10-31T07:59:55;11.30;99.90
33269;DHT22;19640;50.944;5.260;2022-10-31T08:02:21;11.50;99.90
33269;DHT22;19640;50.944;5.260;2022-10-31T08:04:47;11.70;99.90
33269;DHT22;19640;50.944;5.260;2022-10-31T08:07:13;12.10;99.90
33269;DHT22;19640;50.944;5.260;2022-10-31T08:09:38;12.20;99.90
33269;DHT22;19640;50.944;5.260;2022-10-31T08:12:04;12.30;99.90
33269;DHT22;19640;50.944;5.260;2022-10-31T08:14:30;12.50;99.90
33269;DHT22;19640;50.944;5.260;2022-10-31T08:16:56;12.50;99.90
33269;DHT22;19640;50.944;5.260;2022-10-31T08:19:21;12.70;99.90
33269;DHT22;19640;50.944;5.260;2022-10-31T08:21:50;12.90;99.90
33269;DHT22;19640;50.944;5.260;2022-10-31T08:24:16;12.80;99.90
33269;DHT22;19640;50.944;5.260;2022-10-31T08:26:42;13.00;99.90
33269;DHT22;19640;50.944;5.260;2022-10-31T08:29:07;13.40;99.90
33269;DHT22;19640;50.944;5.260;2022-10-31T08:31:33;13.70;99.90
33269;DHT22;19640;50.944;5.260;2022-10-31T08:33:58;14.00;99.90
33269;DHT22;19640;50.944;5.260;2022-10-31T08:36:24;14.00;99.90
33269;DHT22;19640;50.944;5.260;2022-10-31T08:38:50;14.20;99.90
33269;DHT22;19640;50.944;5.260;2022-10-31T08:41:15;14.40;99.90
33269;DHT22;19640;50.944;5.260;2022-10-31T08:43:41;14.60;99.90
33269;DHT22;19640;50.944;5.260;2022-10-31T08:46:07;14.60;99.90
33269;DHT22;19640;50.944;5.260;2022-10-31T08:48:32;14.60;99.90
33269;DHT22;19640;50.944;5.260;2022-10-31T08:50:59;14.50;99.90
33269;DHT22;19640;50.944;5.260;2022-10-31T08:53:25;14.60;99.90
33269;DHT22;19640;50.944;5.260;2022-10-31T08:55:54;14.30;99.90
33269;DHT22;19640;50.944;5.260;2022-10-31T08:58:20;14.20;99.90
33269;DHT22;19640;50.944;5.260;2022-10-31T09:00:48;14.10;99.90
33269;DHT22;19640;50.944;5.260;2022-10-31T09:03:17;14.20;99.90
33269;DHT22;19640;50.944;5.260;2022-10-31T09:05:43;14.30;99.90
33269;DHT22;19640;50.944;5.260;2022-10-31T09:08:09;14.60;99.90
33269;DHT22;19640;50.944;5.260;2022-10-31T09:10:36;14.70;99.90
33269;DHT22;19640;50.944;5.260;2022-10-31T09:13:03;14.90;99.90
33269;DHT22;19640;50.944;5.260;2022-10-31T09:15:36;14.90;99.90
33269;DHT22;19640;50.944;5.260;2022-10-31T09:18:03;14.90;99.90
33269;DHT22;19640;50.944;5.260;2022-10-31T09:20:30;14.80;99.90
33269;DHT22;19640;50.944;5.260;2022-10-31T09:23:01;14.80;99.90
33269;DHT22;19640;50.944;5.260;2022-10-31T09:25:28;14.90;99.90
33269;DHT22;19640;50.944;5.260;2022-10-31T09:27:57;15.00;99.90
33269;DHT22;19640;50.944;5.260;2022-10-31T09:30:24;15.20;99.90
33269;DHT22;19640;50.944;5.260;2022-10-31T09:33:01;15.40;99.90
33269;DHT22;19640;50.944;5.260;2022-10-31T09:35:27;15.70;99.90
33269;DHT22;19640;50.944;5.260;2022-10-31T09:37:57;15.80;99.90
33269;DHT22;19640;50.944;5.260;2022-10-31T09:40:35;15.90;99.90
33269;DHT22;19640;50.944;5.260;2022-10-31T09:48:58;16.10;99.90
33269;DHT22;19640;50.944;5.260;2022-10-31T09:51:34;16.10;99.90
33269;DHT22;19640;50.944;5.260;2022-10-31T09:56:27;16.00;99.90
33269;DHT22;19640;50.944;5.260;2022-10-31T09:58:56;15.80;99.90
33269;DHT22;19640;50.944;5.260;2022-10-31T10:01:51;15.70;99.90
33269;DHT22;19640;50.944;5.260;2022-10-31T10:04:38;15.70;99.90
33269;DHT22;19640;50.944;5.260;2022-10-31T10:15:58;16.20;99.90
33269;DHT22;19640;50.944;5.260;2022-10-31T10:19:33;16.40;99.90
33269;DHT22;19640;50.944;5.260;2022-10-31T10:29:34;16.40;99.90
33269;DHT22;19640;50.944;5.260;2022-10-31T10:32:10;16.10;99.90
33269;DHT22;19640;50.944;5.260;2022-10-31T10:34:50;16.20;99.90
33269;DHT22;19640;50.944;5.260;2022-10-31T10:37:21;16.10;99.90
33269;DHT22;19640;50.944;5.260;2022-10-31T10:39:56;16.10;99.90
33269;DHT22;19640;50.944;5.260;2022-10-31T10:42:26;16.00;99.90
33269;DHT22;19640;50.944;5.260;2022-10-31T10:45:17;15.90;99.90
33269;DHT22;19640;50.944;5.260;2022-10-31T10:48:16;15.80;99.90
33269;DHT22;19640;50.944;5.260;2022-10-31T10:50:48;15.90;99.90
33269;DHT22;19640;50.944;5.260;2022-10-31T10:58:28;16.40;99.90
33269;DHT22;19640;50.944;5.260;2022-10-31T11:00:54;16.30;99.90
33269;DHT22;19640;50.944;5.260;2022-10-31T11:03:20;16.20;99.90
33269;DHT22;19640;50.944;5.260;2022-10-31T11:05:55;16.20;99.90
33269;DHT22;19640;50.944;5.260;2022-10-31T11:08:31;16.30;99.90
33269;DHT22;19640;50.944;5.260;2022-10-31T11:11:26;16.40;99.90
33269;DHT22;19640;50.944;5.260;2022-10-31T11:14:11;16.40;99.90
33269;DHT22;19640;50.944;5.260;2022-10-31T11:16:40;16.50;99.90
33269;DHT22;19640;50.944;5.260;2022-10-31T11:19:26;16.60;99.90
33269;DHT22;19640;50.944;5.260;2022-10-31T11:21:52;16.70;99.90
33269;DHT22;19640;50.944;5.260;2022-10-31T11:24:24;16.80;99.90
33269;DHT22;19640;50.944;5.260;2022-10-31T11:26:51;16.90;99.90
33269;DHT22;19640;50.944;5.260;2022-10-31T11:29:27;16.90;99.90
33269;DHT22;19640;50.944;5.260;2022-10-31T11:31:55;17.00;99.90
33269;DHT22;19640;50.944;5.260;2022-10-31T11:34:34;17.00;99.90
33269;DHT22;19640;50.944;5.260;2022-10-31T11:37:15;17.10;99.90
33269;DHT22;19640;50.944;5.260;2022-10-31T11:39:44;17.20;99.90
33269;DHT22;19640;50.944;5.260;2022-10-31T11:42:11;17.20;99.90
33269;DHT22;19640;50.944;5.260;2022-10-31T11:44:42;17.20;99.90
33269;DHT22;19640;50.944;5.260;2022-10-31T11:47:13;17.20;99.90
33269;DHT22;19640;50.944;5.260;2022-10-31T11:49:46;17.20;99.90
33269;DHT22;19640;50.944;5.260;2022-10-31T11:52:26;17.20;99.90
33269;DHT22;19640;50.944;5.260;2022-10-31T11:59:53;17.00;99.90
33269;DHT22;19640;50.944;5.260;2022-10-31T12:02:19;17.00;99.90
33269;DHT22;19640;50.944;5.260;2022-10-31T12:07:38;17.00;99.90
33269;DHT22;19640;50.944;5.260;2022-10-31T12:10:10;17.00;99.90
33269;DHT22;19640;50.944;5.260;2022-10-31T12:23:57;17.00;99.90
33269;DHT22;19640;50.944;5.260;2022-10-31T12:26:51;17.00;99.90
33269;DHT22;19640;50.944;5.260;2022-10-31T12:29:39;17.10;99.90
33269;DHT22;19640;50.944;5.260;2022-10-31T12:40:47;17.30;99.90
33269;DHT22;19640;50.944;5.260;2022-10-31T13:02:23;17.70;99.90
33269;DHT22;19640;50.944;5.260;2022-10-31T13:05:05;17.70;99.90
33269;DHT22;19640;50.944;5.260;2022-10-31T13:07:37;17.70;99.90
33269;DHT22;19640;50.944;5.260;2022-10-31T13:10:18;17.70;99.90
33269;DHT22;19640;50.944;5.260;2022-10-31T13:12:48;17.80;99.90
33269;DHT22;19640;50.944;5.260;2022-10-31T13:15:22;17.80;99.90
33269;DHT22;19640;50.944;5.260;2022-10-31T13:17:55;17.80;99.90
33269;DHT22;19640;50.944;5.260;2022-10-31T13:20:32;17.90;99.90
33269;DHT22;19640;50.944;5.260;2022-10-31T13:23:20;17.90;99.90
33269;DHT22;19640;50.944;5.260;2022-10-31T13:25:55;18.00;99.90
33269;DHT22;19640;50.944;5.260;2022-10-31T13:31:21;18.30;99.90
33269;DHT22;19640;50.944;5.260;2022-10-31T13:33:51;18.40;99.90
33269;DHT22;19640;50.944;5.260;2022-10-31T13:37:01;18.40;99.90
33269;DHT22;19640;50.944;5.260;2022-10-31T13:44:55;18.50;99.90
33269;DHT22;19640;50.944;5.260;2022-10-31T13:47:31;18.60;99.90
33269;DHT22;19640;50.944;5.260;2022-10-31T13:50:14;18.60;99.90
33269;DHT22;19640;50.944;5.260;2022-10-31T13:52:43;18.70;99.90
33269;DHT22;19640;50.944;5.260;2022-10-31T13:58:04;18.60;99.90
33269;DHT22;19640;50.944;5.260;2022-10-31T14:00:30;18.70;99.90
33269;DHT22;19640;50.944;5.260;2022-10-31T14:03:00;18.80;99.90
33269;DHT22;19640;50.944;5.260;2022-10-31T14:05:30;18.80;99.90
33269;DHT22;19640;50.944;5.260;2022-10-31T14:07:57;18.70;99.90
33269;DHT22;19640;50.944;5.260;2022-10-31T14:15:31;18.60;99.90
33269;DHT22;19640;50.944;5.260;2022-10-31T14:23:09;18.60;99.90
33269;DHT22;19640;50.944;5.260;2022-10-31T14:25:36;18.60;99.90
33269;DHT22;19640;50.944;5.260;2022-10-31T14:28:34;18.60;99.90
33269;DHT22;19640;50.944;5.260;2022-10-31T14:31:00;18.60;99.90
33269;DHT22;19640;50.944;5.260;2022-10-31T14:33:31;18.70;99.90
33269;DHT22;19640;50.944;5.260;2022-10-31T14:36:03;18.80;99.90
33269;DHT22;19640;50.944;5.260;2022-10-31T14:39:07;18.90;99.90
33269;DHT22;19640;50.944;5.260;2022-10-31T14:41:51;18.90;99.90
33269;DHT22;19640;50.944;5.260;2022-10-31T14:50:21;18.70;99.90
33269;DHT22;19640;50.944;5.260;2022-10-31T14:52:51;18.70;99.90
33269;DHT22;19640;50.944;5.260;2022-10-31T14:55:18;18.70;99.90
33269;DHT22;19640;50.944;5.260;2022-10-31T14:57:52;18.60;99.90
33269;DHT22;19640;50.944;5.260;2022-10-31T15:00:21;18.70;99.90
33269;DHT22;19640;50.944;5.260;2022-10-31T15:03:11;18.60;99.90
33269;DHT22;19640;50.944;5.260;2022-10-31T15:06:05;18.50;99.90
33269;DHT22;19640;50.944;5.260;2022-10-31T15:08:38;18.50;99.90
33269;DHT22;19640;50.944;5.260;2022-10-31T15:11:24;18.50;99.90
33269;DHT22;19640;50.944;5.260;2022-10-31T15:13:50;18.50;99.90
33269;DHT22;19640;50.944;5.260;2022-10-31T15:16:20;18.50;99.90
33269;DHT22;19640;50.944;5.260;2022-10-31T15:18:56;18.50;99.90
33269;DHT22;19640;50.944;5.260;2022-10-31T15:21:24;18.50;99.90
33269;DHT22;19640;50.944;5.260;2022-10-31T15:23:53;18.60;99.90
33269;DHT22;19640;50.944;5.260;2022-10-31T15:26:21;18.70;99.90
33269;DHT22;19640;50.944;5.260;2022-10-31T15:29:05;18.60;99.90
33269;DHT22;19640;50.944;5.260;2022-10-31T15:31:31;18.60;99.90
33269;DHT22;19640;50.944;5.260;2022-10-31T15:34:05;18.60;99.90
33269;DHT22;19640;50.944;5.260;2022-10-31T15:36:32;18.60;99.90
33269;DHT22;19640;50.944;5.260;2022-10-31T15:38:58;18.60;99.90
33269;DHT22;19640;50.944;5.260;2022-10-31T15:43:49;18.80;99.90
33269;DHT22;19640;50.944;5.260;2022-10-31T15:46:15;18.70;99.90
33269;DHT22;19640;50.944;5.260;2022-10-31T15:48:45;18.60;99.90
33269;DHT22;19640;50.944;5.260;2022-10-31T15:51:11;18.50;99.90
33269;DHT22;19640;50.944;5.260;2022-10-31T15:53:41;18.40;99.90
33269;DHT22;19640;50.944;5.260;2022-10-31T15:56:12;18.30;99.90
33269;DHT22;19640;50.944;5.260;2022-10-31T15:58:47;18.10;99.90
33269;DHT22;19640;50.944;5.260;2022-10-31T16:01:27;17.90;99.90
33269;DHT22;19640;50.944;5.260;2022-10-31T16:06:28;17.70;99.90
33269;DHT22;19640;50.944;5.260;2022-10-31T16:08:54;17.70;99.90
33269;DHT22;19640;50.944;5.260;2022-10-31T16:13:52;17.60;99.90
33269;DHT22;19640;50.944;5.260;2022-10-31T16:16:19;17.40;99.90
33269;DHT22;19640;50.944;5.260;2022-10-31T16:18:45;17.50;99.90
33269;DHT22;19640;50.944;5.260;2022-10-31T16:21:12;17.60;99.90
33269;DHT22;19640;50.944;5.260;2022-10-31T16:23:44;17.70;99.90
33269;DHT22;19640;50.944;5.260;2022-10-31T16:26:15;17.60;99.90
33269;DHT22;19640;50.944;5.260;2022-10-31T16:31:38;17.20;99.90
33269;DHT22;19640;50.944;5.260;2022-10-31T16:34:09;16.90;99.90
33269;DHT22;19640;50.944;5.260;2022-10-31T16:36:36;16.90;99.90
33269;DHT22;19640;50.944;5.260;2022-10-31T16:39:04;16.80;99.90
33269;DHT22;19640;50.944;5.260;2022-10-31T16:41:32;16.80;99.90
33269;DHT22;19640;50.944;5.260;2022-10-31T16:44:00;16.90;99.90
33269;DHT22;19640;50.944;5.260;2022-10-31T16:46:27;17.00;99.90
33269;DHT22;19640;50.944;5.260;2022-10-31T16:48:53;17.20;99.90
33269;DHT22;19640;50.944;5.260;2022-10-31T16:51:19;17.10;99.90
33269;DHT22;19640;50.944;5.260;2022-10-31T16:53:45;17.00;99.90
33269;DHT22;19640;50.944;5.260;2022-10-31T16:56:30;16.90;99.90
33269;DHT22;19640;50.944;5.260;2022-10-31T16:58:59;16.70;99.90
33269;DHT22;19640;50.944;5.260;2022-10-31T17:01:25;16.70;99.90
33269;DHT22;19640;50.944;5.260;2022-10-31T17:03:51;16.80;99.90
33269;DHT22;19640;50.944;5.260;2022-10-31T17:06:17;17.10;99.90
33269;DHT22;19640;50.944;5.260;2022-10-31T17:08:42;17.20;99.90
33269;DHT22;19640;50.944;5.260;2022-10-31T17:11:17;17.20;99.90
33269;DHT22;19640;50.944;5.260;2022-10-31T17:13:44;17.20;99.90
33269;DHT22;19640;50.944;5.260;2022-10-31T17:16:12;17.30;99.90
33269;DHT22;19640;50.944;5.260;2022-10-31T17:18:40;17.20;99.90
33269;DHT22;19640;50.944;5.260;2022-10-31T17:21:05;17.10;99.90
33269;DHT22;19640;50.944;5.260;2022-10-31T17:23:31;17.20;99.90
33269;DHT22;19640;50.944;5.260;2022-10-31T17:25:58;17.10;99.90
33269;DHT22;19640;50.944;5.260;2022-10-31T17:28:24;17.10;99.90
33269;DHT22;19640;50.944;5.260;2022-10-31T17:30:54;17.10;99.90
33269;DHT22;19640;50.944;5.260;2022-10-31T17:33:22;17.10;99.90
33269;DHT22;19640;50.944;5.260;2022-10-31T17:35:48;16.90;99.90
33269;DHT22;19640;50.944;5.260;2022-10-31T17:38:14;16.80;99.90
33269;DHT22;19640;50.944;5.260;2022-10-31T17:40:40;16.50;99.90
33269;DHT22;19640;50.944;5.260;2022-10-31T17:43:08;16.30;99.90
33269;DHT22;19640;50.944;5.260;2022-10-31T17:45:33;16.20;99.90
33269;DHT22;19640;50.944;5.260;2022-10-31T17:47:59;16.10;99.90
33269;DHT22;19640;50.944;5.260;2022-10-31T17:50:25;16.00;99.90
33269;DHT22;19640;50.944;5.260;2022-10-31T17:52:51;15.90;99.90
33269;DHT22;19640;50.944;5.260;2022-10-31T17:55:18;15.70;99.90
33269;DHT22;19640;50.944;5.260;2022-10-31T17:57:44;15.70;99.90
33269;DHT22;19640;50.944;5.260;2022-10-31T18:00:12;15.80;99.90
33269;DHT22;19640;50.944;5.260;2022-10-31T18:02:38;15.80;99.90
33269;DHT22;19640;50.944;5.260;2022-10-31T18:05:05;15.70;99.90
33269;DHT22;19640;50.944;5.260;2022-10-31T18:07:31;15.60;99.90
33269;DHT22;19640;50.944;5.260;2022-10-31T18:09:57;15.60;99.90
33269;DHT22;19640;50.944;5.260;2022-10-31T18:12:23;15.60;99.90
33269;DHT22;19640;50.944;5.260;2022-10-31T18:14:50;15.50;99.90
33269;DHT22;19640;50.944;5.260;2022-10-31T18:17:16;15.60;99.90
33269;DHT22;19640;50.944;5.260;2022-10-31T18:19:42;15.70;99.90
33269;DHT22;19640;50.944;5.260;2022-10-31T18:22:08;15.70;99.90
33269;DHT22;19640;50.944;5.260;2022-10-31T18:24:33;15.80;99.90